Список аэропортов
Фактическая погода:

01 марта, 22:00
Температура: +11°C (+8.5*)
Ветер: восточный 6 м/с
Давление: *760 мм
Без существ. явл.
Время (МСК)Темп. СВетерВлажностьДавлениеОблачностьОсадки
21:00+12В, 4 м/с49%1015 гПаоблачно
22:00+11В, 4 м/с50%1014 гПаоблачно
23:00+10В, 4 м/с52%1014 гПаоблачно
02 марта
00:00+10В, 4 м/с53%1014 гПаоблачно
01:00+9В, 4 м/с55%1014 гПаоблачно
02:00+9В, 4 м/с58%1013 гПаоблачно
03:00+8В, 4 м/с62%1013 гПаоблачно
04:00+8В, 3 м/с64%1013 гПаоблачно
05:00+8В, 3 м/с66%1013 гПаоблачно
06:00+7В, 3 м/с67%1013 гПаоблачно
07:00+7В, 4 м/с68%1012 гПаоблачно
08:00+8В, 4 м/с66%1012 гПаоблачно
09:00+9В, 4 м/с60%1012 гПаоблачно
10:00+11В, 4 м/с52%1012 гПаоблачно
11:00+13В, 4 м/с46%1012 гПаоблачно
12:00+15ЮВ, 3 м/с44%1012 гПаоблачно
13:00+17ЮВ, 2 м/с40%1012 гПаоблачно
14:00+19Ю, 3 м/с34%1011 гПаоблачно
15:00+20ЮЗ, 3 м/с31%1011 гПаоблачно
16:00+19ЮЗ, 3 м/с31%1011 гПаоблачно
17:00+18ЮЗ, 2 м/с32%1011 гПас прояснениями
18:00+17ЮЗ, 1 м/с36%1011 гПас прояснениями
19:00+15Штиль 44%1011 гПаоблачно
20:00+14СЗ, 1 м/с46%1012 гПаоблачно
21:00+14С, 1 м/с46%1012 гПаоблачно
22:00+13СВ, 2 м/с51%1012 гПаоблачно
23:00+13С, 1 м/с57%1011 гПаоблачно
03 марта
00:00+12С, 2 м/с59%1011 гПаоблачно
01:00+12С, 1 м/с63%1011 гПаоблачно
02:00+11Штиль 66%1011 гПаоблачно
03:00+11СВ, 1 м/с67%1011 гПаоблачно
04:00+11СВ, 1 м/с66%1011 гПаоблачно
05:00+11Ю, 1 м/с69%1011 гПаоблачно
06:00+11Штиль 70%1011 гПаоблачно
07:00+11Штиль 66%1011 гПаоблачно
08:00+11В, 1 м/с67%1011 гПаоблачно
09:00+11Штиль 68%1011 гПаоблачно
10:00+12Ю, 1 м/с60%1011 гПаоблачносл. дождь
11:00+14ЮЗ, 1 м/с54%1011 гПаоблачносл. дождь
12:00+15ЮЗ, 2 м/с48%1011 гПаоблачно
13:00+17ЮЗ, 4 м/с43%1011 гПаоблачно
14:00+17ЮЗ, 5 м/с44%1011 гПаоблачносл. дождь
15:00+17ЮЗ, 5 м/с47%1010 гПаоблачносл. дождь
16:00+16ЮЗ, 4 м/с47%1010 гПаоблачносл. дождь
17:00+16ЮЗ, 4 м/с47%1011 гПаоблачносл. дождь
18:00+15ЮЗ, 4 м/с48%1011 гПаоблачносл. дождь
19:00+15ЮЗ, 4 м/с48%1012 гПаоблачно
20:00+14З, 5 м/с58%1012 гПас прояснениями
21:00+12СЗ, 6 м/с69%1013 гПас прояснениями